Time;durP1;ratioP1;P1;durP2;ratioP2;P2;SDS_P1;SDS_P2;PMS_P1;PMS_P2;Temp;Humidity;BMP_temperature;BMP_pressure;BME280_temperature;BME280_humidity;BME280_pressure;Samples;Min_cycle;Max_cycle;Signal;HPM_P1;HPM_P2
2022/12/31 00:01:23;;;;;;;0.50;0.40;;;13.60;99.90;;;;;;4142786;28;20026;-71
2022/12/31 00:03:24;;;;;;;1.10;0.57;;;13.60;99.90;;;;;;4144771;28;20030;-71
2022/12/31 00:05:24;;;;;;;2.28;0.80;;;13.60;99.90;;;;;;4145148;28;20068;-71
2022/12/31 00:07:25;;;;;;;0.40;0.40;;;13.60;99.90;;;;;;4145439;28;20536;-71
2022/12/31 00:09:25;;;;;;;1.13;0.50;;;13.60;99.90;;;;;;4144339;28;20065;-71
2022/12/31 00:11:27;;;;;;;4.15;0.60;;;13.60;99.90;;;;;;4144339;28;20041;-71
2022/12/31 00:13:28;;;;;;;0.52;0.45;;;13.60;99.90;;;;;;4144021;28;20053;-71
2022/12/31 00:15:28;;;;;;;0.57;0.43;;;13.60;99.90;;;;;;4142920;28;20515;-71
2022/12/31 00:17:29;;;;;;;0.52;0.40;;;13.60;99.90;;;;;;4145344;28;20396;-72
2022/12/31 00:19:30;;;;;;;1.02;0.30;;;13.60;99.90;;;;;;4145451;28;20617;-72
2022/12/31 00:21:32;;;;;;;0.43;0.43;;;13.60;99.90;;;;;;4144124;28;20088;-71
2022/12/31 00:23:33;;;;;;;;;;;13.60;99.90;;;;;;4142432;28;20559;-72
2022/12/31 00:25:35;;;;;;;1.13;0.55;;;13.60;99.90;;;;;;4130824;28;19910;-72
2022/12/31 00:27:35;;;;;;;0.32;0.32;;;13.60;99.90;;;;;;4130032;28;20030;-72
2022/12/31 00:29:36;;;;;;;1.63;0.38;;;13.60;99.90;;;;;;4134058;28;20048;-72
2022/12/31 00:31:38;;;;;;;0.63;0.32;;;13.60;99.90;;;;;;4138474;28;20038;-72
2022/12/31 00:33:39;;;;;;;0.68;0.40;;;13.60;99.90;;;;;;4144857;28;20037;-72
2022/12/31 00:35:40;;;;;;;0.43;0.20;;;13.60;99.90;;;;;;4143662;28;20092;-72
2022/12/31 00:37:40;;;;;;;0.35;0.30;;;13.60;99.90;;;;;;4145596;28;20034;-72
2022/12/31 00:39:41;;;;;;;0.32;0.30;;;13.60;99.90;;;;;;4143828;28;20034;-71
2022/12/31 00:41:42;;;;;;;1.20;0.40;;;13.60;99.90;;;;;;4143525;28;20038;-71
2022/12/31 00:43:43;;;;;;;0.43;0.30;;;13.60;99.90;;;;;;4144755;28;20030;-71
2022/12/31 00:45:44;;;;;;;2.20;0.32;;;13.60;99.90;;;;;;4143135;28;20040;-72
2022/12/31 00:47:44;;;;;;;0.65;0.40;;;13.60;99.90;;;;;;4145100;28;20041;-72
2022/12/31 00:49:45;;;;;;;0.57;0.30;;;13.60;99.90;;;;;;4145397;28;20049;-72
2022/12/31 00:51:46;;;;;;;2.05;0.70;;;13.50;99.90;;;;;;4144072;28;20404;-72
2022/12/31 00:53:46;;;;;;;0.75;0.30;;;13.60;99.90;;;;;;4143604;28;20084;-72
2022/12/31 00:55:47;;;;;;;0.32;0.28;;;13.60;99.90;;;;;;4144475;28;20037;-72
2022/12/31 00:57:48;;;;;;;0.63;0.30;;;13.60;99.90;;;;;;4143448;28;20516;-71
2022/12/31 00:59:48;;;;;;;0.57;0.40;;;13.60;99.90;;;;;;4145068;28;20030;-72
2022/12/31 01:01:49;;;;;;;0.70;0.32;;;13.60;99.90;;;;;;4141927;28;20038;-72
2022/12/31 01:03:51;;;;;;;1.35;0.47;;;13.60;99.90;;;;;;4144117;28;20172;-72
2022/12/31 01:05:57;;;;;;;1.88;0.40;;;13.60;99.90;;;;;;4144547;28;20034;-71
2022/12/31 01:07:57;;;;;;;0.70;0.40;;;13.60;99.90;;;;;;4145079;28;20088;-72
2022/12/31 01:09:58;;;;;;;0.85;0.30;;;13.60;99.90;;;;;;4143325;28;20409;-72
2022/12/31 01:11:58;;;;;;;0.45;0.35;;;13.60;99.90;;;;;;4145147;28;20113;-73
2022/12/31 01:14:15;;;;;;;0.38;0.32;;;13.60;99.90;;;;;;4148041;28;20030;-72
2022/12/31 01:16:18;;;;;;;0.55;0.50;;;13.60;99.90;;;;;;4146017;28;20037;-73
2022/12/31 01:18:18;;;;;;;0.52;0.40;;;13.60;99.90;;;;;;4148135;28;20169;-72
2022/12/31 01:20:19;;;;;;;0.77;0.25;;;13.60;99.90;;;;;;4147763;28;20029;-72
2022/12/31 01:22:19;;;;;;;0.45;0.32;;;13.70;99.90;;;;;;4147067;28;20053;-72
2022/12/31 01:24:21;;;;;;;0.10;0.10;;;13.70;99.90;;;;;;4146594;28;20037;-72
2022/12/31 01:26:21;;;;;;;0.68;0.20;;;13.70;99.90;;;;;;4146897;28;20033;-73
2022/12/31 01:28:22;;;;;;;0.40;0.30;;;13.70;99.90;;;;;;4148200;28;20041;-73
2022/12/31 01:30:22;;;;;;;0.20;0.20;;;13.80;99.90;;;;;;4145874;28;20030;-73
2022/12/31 01:32:23;;;;;;;0.85;0.30;;;13.80;99.90;;;;;;4146072;28;20100;-72
2022/12/31 01:34:23;;;;;;;2.60;0.43;;;13.90;99.90;;;;;;4148142;28;20463;-73
2022/12/31 01:36:26;;;;;;;0.68;0.20;;;13.80;99.90;;;;;;4147724;28;20030;-72
2022/12/31 01:38:27;;;;;;;0.82;0.30;;;13.90;99.90;;;;;;4147652;28;20065;-73
2022/12/31 01:40:28;;;;;;;2.55;0.10;;;14.00;99.90;;;;;;4146507;28;20049;-72
2022/12/31 01:42:28;;;;;;;0.15;0.15;;;14.00;99.90;;;;;;4146978;28;20069;-73
2022/12/31 01:44:29;;;;;;;0.10;0.10;;;14.10;99.90;;;;;;4147813;28;20378;-72
2022/12/31 01:46:45;;;;;;;2.03;0.40;;;14.10;99.90;;;;;;4136128;28;20094;-73
2022/12/31 01:48:51;;;;;;;0.57;0.10;;;14.10;99.90;;;;;;4131259;28;20497;-73
2022/12/31 01:50:53;;;;;;;0.35;0.20;;;14.20;99.90;;;;;;4138696;28;20443;-72
2022/12/31 01:52:57;;;;;;;0.33;0.10;;;14.20;99.90;;;;;;4147006;28;20053;-73
2022/12/31 01:55:17;;;;;;;0.20;0.20;;;14.20;99.90;;;;;;4147832;28;20065;-73
2022/12/31 01:57:18;;;;;;;3.53;0.43;;;14.20;99.90;;;;;;4133429;28;20026;-73
2022/12/31 01:59:21;;;;;;;1.75;0.10;;;14.30;99.90;;;;;;4147225;28;20397;-73
2022/12/31 02:01:29;;;;;;;0.32;0.10;;;14.30;99.90;;;;;;4144676;28;20026;-72
2022/12/31 02:03:30;;;;;;;0.05;0.05;;;14.30;99.90;;;;;;4144649;28;20026;-72
2022/12/31 02:05:38;;;;;;;0.10;0.10;;;14.40;99.90;;;;;;4147127;28;20040;-73
2022/12/31 02:07:39;;;;;;;0.10;0.10;;;14.40;99.90;;;;;;4147034;28;20042;-72
2022/12/31 02:09:40;;;;;;;0.35;0.10;;;14.50;99.90;;;;;;4145310;28;20064;-73
2022/12/31 02:11:41;;;;;;;0.50;0.30;;;14.50;99.90;;;;;;4146285;28;20378;-72
2022/12/31 02:13:41;;;;;;;0.90;0.10;;;14.50;99.90;;;;;;4144978;28;20077;-72
2022/12/31 02:16:02;;;;;;;0.20;0.20;;;14.50;99.90;;;;;;4143971;28;20069;-72
2022/12/31 02:18:32;;;;;;;0.00;0.00;;;14.60;99.90;;;;;;4145408;28;20449;-72
2022/12/31 02:20:39;;;;;;;0.90;0.10;;;14.60;99.90;;;;;;4143176;28;20052;-73
2022/12/31 02:23:08;;;;;;;0.15;0.10;;;14.60;99.90;;;;;;4146078;28;20113;-72
2022/12/31 02:25:38;;;;;;;1.00;0.20;;;14.70;99.90;;;;;;4142548;28;20038;-73
2022/12/31 02:28:19;;;;;;;0.32;0.17;;;14.60;99.90;;;;;;4134759;28;20045;-73
2022/12/31 02:30:23;;;;;;;0.43;0.13;;;14.60;99.90;;;;;;4125867;28;20586;-72
2022/12/31 02:32:48;;;;;;;0.17;0.10;;;14.70;99.90;;;;;;4142518;28;20389;-72
2022/12/31 02:34:57;;;;;;;0.08;0.05;;;14.70;99.90;;;;;;4145072;28;20030;-72
2022/12/31 02:37:02;;;;;;;0.10;0.10;;;14.70;99.90;;;;;;4146702;28;20496;-73
2022/12/31 02:39:06;;;;;;;1.48;0.50;;;14.80;99.90;;;;;;4146745;28;20054;-72
2022/12/31 02:41:48;;;;;;;0.25;0.08;;;14.80;99.90;;;;;;4145068;28;20070;-72
2022/12/31 02:43:33;;;;;;;1.08;0.17;;;14.80;99.90;;;;;;4145680;28;20045;-72
2022/12/31 02:45:38;;;;;;;0.20;0.20;;;14.90;99.90;;;;;;4145255;28;20042;-72
2022/12/31 02:48:03;;;;;;;0.30;0.20;;;14.90;99.90;;;;;;4146521;28;20049;-72
2022/12/31 02:50:37;;;;;;;1.00;0.10;;;14.90;99.90;;;;;;4146102;28;20041;-72
2022/12/31 02:53:01;;;;;;;0.40;0.30;;;15.00;99.90;;;;;;4143018;28;20385;-72
2022/12/31 02:55:08;;;;;;;0.35;0.13;;;15.00;99.90;;;;;;4142424;28;20581;-72
2022/12/31 02:57:18;;;;;;;1.58;0.28;;;15.00;99.90;;;;;;4146236;28;22285;-72
2022/12/31 03:06:30;;;;;;;1.27;0.20;;;15.10;99.90;;;;;;4145845;28;20253;-72
2022/12/31 03:08:30;;;;;;;0.57;0.40;;;15.10;99.90;;;;;;4146737;28;20038;-72
2022/12/31 03:10:31;;;;;;;0.28;0.10;;;15.00;99.90;;;;;;4144430;28;20129;-72
2022/12/31 03:12:46;;;;;;;0.50;0.25;;;15.00;99.90;;;;;;4145423;28;20050;-71
2022/12/31 03:14:46;;;;;;;0.50;0.20;;;15.00;99.90;;;;;;4146192;28;20061;-71
2022/12/31 03:16:47;;;;;;;3.10;0.93;;;15.00;99.90;;;;;;4141187;28;20397;-71
2022/12/31 03:23:38;;;;;;;0.13;0.13;;;15.00;99.90;;;;;;4143551;28;20030;-72
2022/12/31 03:25:39;;;;;;;0.50;0.20;;;15.00;99.90;;;;;;4133460;28;20026;-72
2022/12/31 03:27:39;;;;;;;0.55;0.30;;;15.00;99.90;;;;;;4146020;28;20137;-73
2022/12/31 03:29:40;;;;;;;0.35;0.08;;;15.00;99.90;;;;;;4145549;28;20038;-73
2022/12/31 03:31:41;;;;;;;0.30;0.22;;;15.00;99.90;;;;;;4141917;28;20029;-72
2022/12/31 03:33:41;;;;;;;1.75;0.20;;;15.00;99.90;;;;;;4143785;28;20042;-72
2022/12/31 03:35:43;;;;;;;1.23;0.20;;;14.90;99.90;;;;;;4145565;28;20048;-72
2022/12/31 03:37:45;;;;;;;0.75;0.20;;;14.90;99.90;;;;;;4145971;28;20435;-71
2022/12/31 03:39:45;;;;;;;1.45;0.30;;;14.80;99.90;;;;;;4139755;28;20034;-71
2022/12/31 03:41:46;;;;;;;1.25;0.30;;;14.80;99.90;;;;;;4139250;28;20034;-73
2022/12/31 03:43:46;;;;;;;1.60;0.28;;;14.80;99.90;;;;;;4145377;28;20538;-72
2022/12/31 03:45:50;;;;;;;3.65;0.52;;;14.70;99.90;;;;;;4143915;28;20485;-71
2022/12/31 03:47:50;;;;;;;0.43;0.17;;;14.70;99.90;;;;;;4145700;28;20505;-72
2022/12/31 03:49:51;;;;;;;0.73;0.30;;;14.70;99.90;;;;;;4144122;28;20034;-72
2022/12/31 03:51:52;;;;;;;1.17;0.38;;;14.70;99.90;;;;;;4143747;28;20030;-72
2022/12/31 03:53:52;;;;;;;0.10;0.10;;;14.60;99.90;;;;;;4145341;28;20481;-72
2022/12/31 03:55:53;;;;;;;0.30;0.20;;;14.60;99.90;;;;;;4132195;28;20034;-73
2022/12/31 03:57:54;;;;;;;1.23;0.30;;;14.60;99.90;;;;;;4145685;28;20460;-73
2022/12/31 03:59:55;;;;;;;1.65;0.50;;;14.50;99.90;;;;;;4145917;28;20066;-72
2022/12/31 04:01:55;;;;;;;0.20;0.10;;;14.50;99.90;;;;;;4141749;28;20033;-73
2022/12/31 04:03:56;;;;;;;0.98;0.38;;;14.60;99.90;;;;;;4145476;28;20424;-72
2022/12/31 04:05:56;;;;;;;1.13;0.22;;;14.50;99.90;;;;;;4145330;28;20473;-73
2022/12/31 04:07:57;;;;;;;0.35;0.20;;;14.50;99.90;;;;;;4145688;28;20451;-73
2022/12/31 04:09:58;;;;;;;2.38;0.70;;;14.50;99.90;;;;;;4144687;28;20425;-73
2022/12/31 04:11:58;;;;;;;0.85;0.15;;;14.50;99.90;;;;;;4141841;28;20038;-72
2022/12/31 04:13:59;;;;;;;1.67;0.40;;;14.60;99.90;;;;;;4145351;28;20080;-73
2022/12/31 04:15:59;;;;;;;2.47;0.30;;;14.60;99.90;;;;;;4137792;28;20030;-72
2022/12/31 04:18:00;;;;;;;3.42;0.57;;;14.60;99.90;;;;;;4129481;28;20405;-72
2022/12/31 04:20:01;;;;;;;1.52;0.40;;;14.60;99.90;;;;;;4142447;28;20033;-73
2022/12/31 04:22:01;;;;;;;1.27;0.35;;;14.60;99.90;;;;;;4142730;28;20038;-73
2022/12/31 04:24:02;;;;;;;1.45;0.30;;;14.70;99.90;;;;;;4143886;28;20064;-73
2022/12/31 04:26:03;;;;;;;0.98;0.38;;;14.70;99.90;;;;;;4142949;28;20034;-73
2022/12/31 04:28:03;;;;;;;1.33;0.40;;;14.70;99.90;;;;;;4143892;28;20046;-73
2022/12/31 04:30:05;;;;;;;2.35;0.47;;;14.70;99.90;;;;;;4142060;28;20525;-73
2022/12/31 04:32:06;;;;;;;4.07;0.35;;;14.70;99.90;;;;;;4143309;28;20478;-73
2022/12/31 04:34:07;;;;;;;1.80;0.30;;;14.70;99.90;;;;;;4144795;28;20125;-73
2022/12/31 04:36:08;;;;;;;2.90;0.73;;;14.80;99.90;;;;;;4142952;28;20461;-73
2022/12/31 04:38:08;;;;;;;2.50;0.50;;;14.80;99.90;;;;;;4144626;28;20128;-73
2022/12/31 04:40:09;;;;;;;2.75;0.45;;;14.90;99.90;;;;;;4141750;28;20049;-72
2022/12/31 04:42:10;;;;;;;1.55;0.30;;;14.90;99.90;;;;;;4142269;28;20045;-73
2022/12/31 04:44:10;;;;;;;1.88;0.60;;;14.90;99.90;;;;;;4144534;28;20046;-73
2022/12/31 04:46:12;;;;;;;1.35;0.50;;;15.00;99.90;;;;;;4136267;28;20473;-73
2022/12/31 04:48:13;;;;;;;2.23;0.40;;;15.00;99.90;;;;;;4128960;28;20045;-73
2022/12/31 04:50:13;;;;;;;4.53;0.57;;;15.10;99.90;;;;;;4138755;28;20034;-73
2022/12/31 04:52:14;;;;;;;2.55;0.65;;;15.10;99.90;;;;;;4143316;28;20038;-73
2022/12/31 04:54:15;;;;;;;1.67;0.30;;;15.10;99.90;;;;;;4145028;28;20369;-73
2022/12/31 04:56:16;;;;;;;1.98;0.60;;;15.10;99.90;;;;;;4138825;28;20030;-66
2022/12/31 04:58:17;;;;;;;1.42;0.30;;;15.20;99.90;;;;;;4143077;28;20026;-72
2022/12/31 05:00:17;;;;;;;3.75;0.60;;;15.20;99.90;;;;;;4134125;28;20038;-72
2022/12/31 05:02:18;;;;;;;2.55;0.55;;;15.20;99.90;;;;;;4142088;28;20521;-72
2022/12/31 05:04:18;;;;;;;1.83;0.50;;;15.20;99.90;;;;;;4145150;28;20038;-72
2022/12/31 05:06:21;;;;;;;2.72;0.57;;;15.30;99.90;;;;;;4144511;28;20370;-72
2022/12/31 05:08:22;;;;;;;1.15;0.40;;;15.30;99.90;;;;;;4137002;28;20080;-73
2022/12/31 05:10:22;;;;;;;0.98;0.45;;;15.30;99.90;;;;;;4142177;28;20045;-73
2022/12/31 05:12:23;;;;;;;2.45;0.60;;;15.40;99.90;;;;;;4142757;28;20109;-73
2022/12/31 05:14:24;;;;;;;0.90;0.35;;;15.40;99.90;;;;;;4154047;28;20109;-72
2022/12/31 05:16:24;;;;;;;1.85;0.70;;;15.50;99.90;;;;;;4144005;28;20538;-73
2022/12/31 05:18:25;;;;;;;1.33;0.57;;;15.50;99.90;;;;;;4138171;28;20077;-73
2022/12/31 05:20:26;;;;;;;2.38;0.60;;;15.50;99.90;;;;;;4154698;28;20033;-74
2022/12/31 05:22:29;;;;;;;1.70;0.50;;;15.60;99.90;;;;;;4142890;28;20084;-73
2022/12/31 05:24:30;;;;;;;2.58;0.32;;;15.60;99.90;;;;;;4151142;28;20026;-73
2022/12/31 05:26:30;;;;;;;1.15;0.55;;;15.60;99.90;;;;;;4151094;28;20045;-73
2022/12/31 05:28:31;;;;;;;1.92;0.60;;;15.60;99.90;;;;;;4156997;28;20064;-73
2022/12/31 05:30:32;;;;;;;1.63;0.60;;;15.70;99.90;;;;;;4148081;28;20027;-73
2022/12/31 05:32:33;;;;;;;4.60;0.88;;;15.70;99.90;;;;;;4144036;28;20037;-73
2022/12/31 05:34:33;;;;;;;2.80;0.60;;;15.70;99.90;;;;;;4156652;28;20036;-73
2022/12/31 05:36:34;;;;;;;1.10;0.50;;;15.80;99.90;;;;;;4147387;28;20038;-73
2022/12/31 05:38:36;;;;;;;1.38;0.50;;;15.80;99.90;;;;;;4151400;28;20504;-73
2022/12/31 05:40:37;;;;;;;1.85;0.52;;;15.80;99.90;;;;;;4130838;28;20030;-74
2022/12/31 05:42:38;;;;;;;3.67;0.68;;;15.80;99.90;;;;;;4146397;28;20396;-73
2022/12/31 05:44:38;;;;;;;1.85;0.50;;;15.80;99.90;;;;;;4158053;28;20099;-73
2022/12/31 05:46:39;;;;;;;0.52;0.40;;;15.80;99.90;;;;;;4148003;28;20030;-74
2022/12/31 05:48:40;;;;;;;1.50;0.47;;;15.80;99.90;;;;;;4156728;28;20041;-74
2022/12/31 05:50:40;;;;;;;0.95;0.25;;;15.80;99.90;;;;;;4157386;28;20060;-75
2022/12/31 05:52:42;;;;;;;5.20;0.80;;;15.80;99.90;;;;;;4146155;28;20045;-73
2022/12/31 05:54:43;;;;;;;1.38;0.40;;;15.80;99.90;;;;;;4150150;28;20037;-74
2022/12/31 05:56:43;;;;;;;2.30;0.40;;;15.90;99.90;;;;;;4152196;28;20116;-73
2022/12/31 05:58:44;;;;;;;1.25;0.52;;;15.90;99.90;;;;;;4160742;28;20037;-74
2022/12/31 06:00:44;;;;;;;3.92;0.68;;;15.90;99.90;;;;;;4151010;28;20046;-74
2022/12/31 06:02:45;;;;;;;2.33;0.80;;;15.90;99.90;;;;;;4150039;28;20044;-73
2022/12/31 06:04:46;;;;;;;1.02;0.50;;;15.90;99.90;;;;;;4147383;28;20030;-76
2022/12/31 06:06:47;;;;;;;1.45;0.50;;;15.90;99.90;;;;;;4143000;28;20042;-72
2022/12/31 06:08:51;;;;;;;1.60;0.40;;;15.80;99.90;;;;;;4159911;28;20026;-74
2022/12/31 06:10:51;;;;;;;0.40;0.40;;;15.90;99.90;;;;;;4148976;28;20038;-69
2022/12/31 06:12:52;;;;;;;2.08;0.50;;;15.90;99.90;;;;;;4149475;28;20111;-73
2022/12/31 06:14:52;;;;;;;3.40;0.70;;;15.90;99.90;;;;;;4157410;28;20053;-74
2022/12/31 06:16:53;;;;;;;0.98;0.50;;;15.90;99.90;;;;;;4141955;28;20026;-75
2022/12/31 06:18:54;;;;;;;2.58;0.88;;;15.90;99.90;;;;;;4147555;28;20030;-73
2022/12/31 06:20:57;;;;;;;3.53;0.68;;;15.90;99.90;;;;;;4135257;28;20030;-74
2022/12/31 06:22:57;;;;;;;3.83;0.77;;;15.90;99.90;;;;;;4140726;28;20022;-75
2022/12/31 06:24:58;;;;;;;2.00;0.60;;;15.90;99.90;;;;;;4148877;28;20056;-74
2022/12/31 06:26:58;;;;;;;0.95;0.50;;;15.90;99.90;;;;;;4156023;28;20084;-74
2022/12/31 06:28:59;;;;;;;1.17;0.30;;;15.90;99.90;;;;;;4145464;28;20370;-74
2022/12/31 06:31:05;;;;;;;3.20;0.70;;;15.90;99.90;;;;;;4144464;28;20395;-75
2022/12/31 06:33:06;;;;;;;1.08;0.50;;;16.00;99.90;;;;;;4145713;28;20397;-75
2022/12/31 06:35:07;;;;;;;3.60;0.40;;;16.00;99.90;;;;;;4146876;28;20042;-74
2022/12/31 06:37:08;;;;;;;3.47;0.73;;;16.00;99.90;;;;;;4150555;28;20025;-74
2022/12/31 06:39:08;;;;;;;3.40;0.65;;;16.10;99.90;;;;;;4162582;28;20026;-74
2022/12/31 06:41:11;;;;;;;2.53;0.70;;;16.10;99.90;;;;;;4175897;28;20480;-75
2022/12/31 06:43:12;;;;;;;1.30;0.30;;;16.10;99.90;;;;;;4144066;28;20057;-75
2022/12/31 06:45:12;;;;;;;2.15;0.65;;;16.10;99.90;;;;;;4150908;28;20046;-75
2022/12/31 06:47:13;;;;;;;2.60;0.65;;;16.10;99.90;;;;;;4138287;28;20126;-75
2022/12/31 06:49:13;;;;;;;4.53;0.88;;;16.10;99.90;;;;;;4149538;28;20026;-74
2022/12/31 06:51:16;;;;;;;4.97;0.88;;;16.10;99.90;;;;;;4156527;28;20083;-73
2022/12/31 06:53:17;;;;;;;1.90;0.50;;;16.10;99.90;;;;;;4151170;28;20033;-71
2022/12/31 06:55:18;;;;;;;6.68;1.35;;;16.10;99.90;;;;;;4140363;28;20090;-74
2022/12/31 06:57:19;;;;;;;2.83;0.65;;;16.10;99.90;;;;;;4152629;28;20045;-74
2022/12/31 06:59:26;;;;;;;4.22;1.05;;;16.20;99.90;;;;;;4158650;28;20672;-75
2022/12/31 07:01:35;;;;;;;1.80;0.60;;;16.20;99.90;;;;;;4138964;28;20508;-76
2022/12/31 07:04:00;;;;;;;1.27;0.50;;;16.20;99.90;;;;;;4146341;28;20030;-76
2022/12/31 07:06:15;;;;;;;3.55;0.80;;;16.20;99.90;;;;;;4146424;28;20105;-75
2022/12/31 07:08:43;;;;;;;3.20;0.93;;;16.30;99.90;;;;;;4146312;28;20062;-75
2022/12/31 07:11:04;;;;;;;1.15;0.50;;;16.30;99.90;;;;;;4146497;28;20116;-74
2022/12/31 07:13:34;;;;;;;3.25;0.90;;;16.30;99.90;;;;;;4165220;28;20061;-75
2022/12/31 07:15:48;;;;;;;3.63;0.73;;;16.30;99.90;;;;;;4141411;28;20038;-76
2022/12/31 07:18:19;;;;;;;3.78;0.95;;;16.30;99.90;;;;;;4140606;28;20432;-75
2022/12/31 07:20:20;;;;;;;3.15;0.77;;;16.30;99.90;;;;;;4144903;28;20532;-74
2022/12/31 07:22:21;;;;;;;1.33;0.60;;;16.30;99.90;;;;;;4144770;28;20042;-73
2022/12/31 07:24:21;;;;;;;2.67;0.60;;;16.30;99.90;;;;;;4159584;28;20095;-75
2022/12/31 07:26:41;;;;;;;3.33;1.15;;;16.30;99.90;;;;;;4143198;28;20030;-75
2022/12/31 07:28:49;;;;;;;4.40;1.00;;;16.30;99.90;;;;;;4142569;28;20049;-76
2022/12/31 07:31:31;;;;;;;2.00;0.70;;;16.30;99.90;;;;;;4143802;28;20030;-75
2022/12/31 07:33:46;;;;;;;4.25;0.85;;;16.30;99.90;;;;;;4147990;28;20034;-75
2022/12/31 07:36:06;;;;;;;2.78;0.90;;;16.30;99.90;;;;;;4145263;28;20507;-73
2022/12/31 07:38:48;;;;;;;3.80;0.80;;;16.40;99.90;;;;;;4141146;28;20116;-82
2022/12/31 07:41:16;;;;;;;2.35;0.73;;;16.40;99.90;;;;;;4147220;28;20041;-79
2022/12/31 07:43:35;;;;;;;2.47;0.70;;;16.30;99.90;;;;;;4147365;28;20029;-82
2022/12/31 07:46:01;;;;;;;3.38;0.95;;;16.30;99.90;;;;;;4150784;28;20553;-81
2022/12/31 07:48:02;;;;;;;3.85;0.88;;;16.30;99.90;;;;;;4140838;28;20135;-80
2022/12/31 07:50:03;;;;;;;2.83;0.60;;;16.30;99.90;;;;;;4132288;28;20092;-81
2022/12/31 07:52:04;;;;;;;2.33;0.73;;;16.30;99.90;;;;;;4126541;28;20466;-81
2022/12/31 07:54:05;;;;;;;4.38;0.77;;;16.40;99.90;;;;;;4141727;28;20042;-81
2022/12/31 07:56:08;;;;;;;2.65;0.88;;;16.40;99.90;;;;;;4156940;28;20100;-80
2022/12/31 07:58:37;;;;;;;3.30;0.82;;;16.40;99.90;;;;;;4135430;28;20476;-83
2022/12/31 08:00:38;;;;;;;3.03;0.90;;;16.40;99.90;;;;;;4132727;28;20038;-79
2022/12/31 08:03:02;;;;;;;1.02;0.60;;;16.30;99.90;;;;;;4166314;28;20071;-81
2022/12/31 08:05:14;;;;;;;1.65;0.65;;;16.40;99.90;;;;;;4145238;28;20032;-79
2022/12/31 08:08:04;;;;;;;3.90;0.90;;;16.40;99.90;;;;;;4132003;28;20040;-80
2022/12/31 08:10:41;;;;;;;4.70;0.82;;;16.40;99.90;;;;;;4105654;28;20165;-79
2022/12/31 08:12:42;;;;;;;3.47;0.65;;;16.40;99.90;;;;;;4118898;28;20045;-79
2022/12/31 08:14:46;;;;;;;2.90;0.70;;;16.40;99.90;;;;;;4140319;28;20037;-78
2022/12/31 08:16:47;;;;;;;3.65;0.80;;;16.40;99.90;;;;;;4139847;28;20034;-80
2022/12/31 08:18:48;;;;;;;2.33;0.70;;;16.40;99.90;;;;;;4134596;28;20041;-78
2022/12/31 08:21:39;;;;;;;2.95;0.65;;;16.40;99.90;;;;;;4140618;28;20060;-79
2022/12/31 08:23:56;;;;;;;2.58;0.80;;;16.50;99.90;;;;;;4109011;28;20080;-78
2022/12/31 08:26:12;;;;;;;1.27;0.55;;;16.50;99.90;;;;;;4135180;28;20393;-78
2022/12/31 08:28:53;;;;;;;2.63;0.73;;;16.50;99.90;;;;;;4139785;28;20056;-78
2022/12/31 08:31:06;;;;;;;2.70;0.80;;;16.50;99.90;;;;;;4132569;28;20488;-76
2022/12/31 08:33:17;;;;;;;1.50;0.60;;;16.50;99.90;;;;;;4137443;28;20461;-78
2022/12/31 08:35:21;;;;;;;1.50;0.73;;;16.50;99.90;;;;;;4141700;28;20586;-78
2022/12/31 08:37:41;;;;;;;2.45;0.63;;;16.60;99.90;;;;;;4143782;28;20046;-77
2022/12/31 08:40:06;;;;;;;1.02;0.52;;;16.60;99.90;;;;;;4141214;28;20126;-78
2022/12/31 08:42:20;;;;;;;1.90;0.52;;;16.60;99.90;;;;;;4138886;28;20042;-78
2022/12/31 08:44:32;;;;;;;1.40;0.70;;;16.60;99.90;;;;;;4140524;28;20158;-75
2022/12/31 08:46:48;;;;;;;1.15;0.43;;;16.60;99.90;;;;;;4139650;28;20109;-80
2022/12/31 08:48:49;;;;;;;3.28;0.77;;;16.60;99.90;;;;;;4145946;28;20030;-77
2022/12/31 08:50:50;;;;;;;1.70;0.60;;;16.60;99.90;;;;;;4144330;28;20044;-78
2022/12/31 08:52:50;;;;;;;3.92;0.85;;;16.60;99.90;;;;;;4143328;28;20049;-72
2022/12/31 08:54:52;;;;;;;2.53;0.60;;;16.60;99.90;;;;;;4143039;28;20513;-79
2022/12/31 08:57:08;;;;;;;0.85;0.55;;;16.60;99.90;;;;;;4141854;28;20038;-79
2022/12/31 08:59:32;;;;;;;2.67;1.02;;;16.60;99.90;;;;;;4145540;28;20038;-79
2022/12/31 09:01:49;;;;;;;2.88;1.02;;;16.60;99.90;;;;;;4139575;28;20125;-80
2022/12/31 09:04:09;;;;;;;2.72;0.90;;;16.60;99.90;;;;;;4144301;28;20088;-81
2022/12/31 09:06:25;;;;;;;3.10;1.10;;;16.60;99.90;;;;;;4142005;28;20042;-79
2022/12/31 09:08:43;;;;;;;2.92;0.82;;;16.70;99.90;;;;;;4145096;28;20116;-79
2022/12/31 09:10:49;;;;;;;3.58;0.70;;;16.60;99.90;;;;;;4134783;28;20046;-79
2022/12/31 09:13:10;;;;;;;1.63;0.50;;;16.60;99.90;;;;;;4143052;28;20120;-78
2022/12/31 09:15:18;;;;;;;3.42;0.50;;;16.70;99.90;;;;;;4142699;28;20086;-80
2022/12/31 09:17:34;;;;;;;2.50;0.50;;;16.70;99.90;;;;;;4143944;28;20044;-79
2022/12/31 09:19:35;;;;;;;2.90;0.80;;;16.70;99.90;;;;;;4146096;28;20058;-79
2022/12/31 09:21:36;;;;;;;9.00;1.08;;;16.70;99.90;;;;;;4142419;28;20030;-77
2022/12/31 09:23:38;;;;;;;3.05;0.70;;;16.60;99.90;;;;;;4143073;28;20041;-78
2022/12/31 09:26:08;;;;;;;3.03;0.65;;;16.70;99.90;;;;;;4143834;28;20026;-78
2022/12/31 09:28:09;;;;;;;4.10;1.02;;;16.70;99.90;;;;;;4128462;28;20465;-78
2022/12/31 09:30:15;;;;;;;3.67;0.85;;;16.70;99.90;;;;;;4141354;28;20038;-78
2022/12/31 09:32:34;;;;;;;2.88;0.60;;;16.70;99.90;;;;;;4141230;28;20031;-78
2022/12/31 09:34:40;;;;;;;2.15;0.60;;;16.70;99.90;;;;;;4147538;28;20045;-79
2022/12/31 09:36:50;;;;;;;5.50;1.05;;;16.70;99.90;;;;;;4147587;28;20163;-77
2022/12/31 09:39:02;;;;;;;2.45;0.80;;;16.70;99.90;;;;;;4145720;28;20145;-78
2022/12/31 09:41:28;;;;;;;2.03;0.68;;;16.70;99.90;;;;;;4142393;28;20494;-77
2022/12/31 09:44:06;;;;;;;6.35;0.70;;;16.80;99.90;;;;;;4142830;28;20034;-76
2022/12/31 09:46:26;;;;;;;1.95;0.75;;;16.80;99.90;;;;;;4144997;28;20049;-78
2022/12/31 09:48:32;;;;;;;4.32;0.90;;;16.70;99.90;;;;;;4143361;28;20049;-77
2022/12/31 09:50:58;;;;;;;2.70;0.80;;;16.70;99.90;;;;;;4144669;28;20026;-77
2022/12/31 09:53:05;;;;;;;2.10;0.80;;;16.80;99.90;;;;;;4145264;28;20034;-77
2022/12/31 09:55:11;;;;;;;2.15;0.98;;;16.70;99.90;;;;;;4147192;28;20443;-77
2022/12/31 09:57:39;;;;;;;4.55;1.00;;;16.70;99.90;;;;;;4147012;28;20296;-78
2022/12/31 09:59:53;;;;;;;1.92;0.57;;;16.80;99.90;;;;;;4145593;28;20061;-77
2022/12/31 10:02:11;;;;;;;3.92;1.27;;;16.70;99.90;;;;;;4145056;28;20065;-74
2022/12/31 10:04:14;;;;;;;2.35;0.85;;;16.80;99.90;;;;;;4146374;28;20418;-77
2022/12/31 10:06:26;;;;;;;1.67;0.70;;;16.80;99.90;;;;;;4146698;28;20034;-77
2022/12/31 10:09:07;;;;;;;0.93;0.38;;;16.80;99.90;;;;;;4144872;28;20125;-75
2022/12/31 10:11:20;;;;;;;5.28;1.05;;;16.80;99.90;;;;;;4142334;28;20416;-76
2022/12/31 10:13:47;;;;;;;1.40;0.63;;;16.80;99.90;;;;;;4140952;28;20049;-77
2022/12/31 10:16:03;;;;;;;3.42;0.90;;;16.90;99.90;;;;;;4139102;28;20044;-77
2022/12/31 10:18:41;;;;;;;4.38;1.10;;;16.90;99.90;;;;;;4144435;28;20080;-78
2022/12/31 10:21:03;;;;;;;4.22;1.13;;;16.90;99.90;;;;;;4145668;28;20033;-78
2022/12/31 10:23:16;;;;;;;3.28;0.95;;;16.90;99.90;;;;;;4144416;28;20409;-77
2022/12/31 10:25:46;;;;;;;2.10;0.82;;;16.90;99.90;;;;;;4139618;28;20064;-77
2022/12/31 10:27:57;;;;;;;6.32;1.30;;;17.00;99.90;;;;;;4146051;28;20049;-76
2022/12/31 10:30:10;;;;;;;2.50;1.17;;;17.00;99.90;;;;;;4145975;28;20393;-76
2022/12/31 10:32:27;;;;;;;3.80;1.02;;;17.00;99.90;;;;;;4144136;28;20038;-77
2022/12/31 10:34:51;;;;;;;5.20;1.38;;;17.00;99.90;;;;;;4145146;28;20436;-77
2022/12/31 10:36:54;;;;;;;3.13;1.00;;;17.00;99.90;;;;;;4144708;28;20095;-76
2022/12/31 10:38:57;;;;;;;;;;;17.00;99.90;;;;;;4145687;28;20080;-76
2022/12/31 10:41:20;;;;;;;4.18;1.13;;;17.00;99.90;;;;;;4139907;28;20392;-75
2022/12/31 10:43:48;;;;;;;6.95;1.17;;;17.00;99.90;;;;;;4131480;28;20065;-77
2022/12/31 10:46:39;;;;;;;4.47;1.23;;;17.00;99.90;;;;;;4143567;28;20440;-76
2022/12/31 10:49:06;;;;;;;4.80;1.02;;;17.00;99.90;;;;;;4141584;28;20428;-77
2022/12/31 10:51:28;;;;;;;2.83;1.00;;;17.00;99.90;;;;;;4176905;28;20061;-76
2022/12/31 10:54:00;;;;;;;2.90;1.17;;;17.00;99.90;;;;;;4135848;28;20065;-77
2022/12/31 10:56:38;;;;;;;6.05;1.27;;;17.10;99.90;;;;;;4143499;28;20408;-77
2022/12/31 10:58:52;;;;;;;5.22;1.30;;;17.10;99.90;;;;;;4145407;28;20089;-76
2022/12/31 11:01:17;;;;;;;3.00;0.93;;;17.10;99.90;;;;;;4134082;28;20060;-77
2022/12/31 11:04:09;;;;;;;3.78;0.90;;;17.20;99.90;;;;;;4145411;28;20038;-76
2022/12/31 11:06:41;;;;;;;3.95;1.23;;;17.10;99.90;;;;;;4136227;28;20037;-74
2022/12/31 11:09:05;;;;;;;2.83;1.10;;;17.20;99.90;;;;;;4144549;28;20037;-76
2022/12/31 11:11:36;;;;;;;3.33;1.05;;;17.20;99.90;;;;;;4146398;28;20033;-77
2022/12/31 11:14:12;;;;;;;3.85;1.13;;;17.20;99.90;;;;;;4143595;28;20408;-77
2022/12/31 11:16:43;;;;;;;2.67;1.10;;;17.20;99.90;;;;;;4147450;28;20064;-77
2022/12/31 11:19:17;;;;;;;3.67;1.13;;;17.10;99.90;;;;;;4144214;28;20667;-77
2022/12/31 11:21:37;;;;;;;2.75;1.00;;;17.20;99.90;;;;;;4135398;28;20473;-77